Etusivu
METAR-TAF:

METAR-TAF

Lentoasemat :

Trent Lott International Airport

Pascagoula, Mississippi, Yhdysvallat

Leveyspiiri: 30-27-49N, Pituuspiiri: 088-31-55W, korkeus merenpinnasta: 5 m

Tämänhetkinen sää

Tämä raportti tehtiin 1 tunti ja 6 minuuttia sitten, kello 19.53 UTC
Tuuli 10 kn kaakosta
Lämpötila 23°C
Kosteus 89%
Ilmanpaine 1018 hPa
Näkyvyys: 4.8 km
Pilvistä 300 ft:n korkeudessa
sadetta, utua

METAR: KPQL 221953Z 14010KT 3SM RA BR OVC003 23/21 A3005 RMK AO2 RAB49 SLP178 P0001 T02280211

Aika: 14:59 (20:59 UTC)


TAF: puuttuu

Säähavainnot ja -ennusteet yli 4000 lentoasemalta (METAR- ja TAF-raportit).

Käytössä olevat sääasemat on merkitty karttaan keltaisilla ja punaisilla pisteillä.

Aseta hiiri pisteen päälle nähdäksesi sääaseman nimen.

Klikkaa sitten nähdäksesi säähavainnot ja -ennusteet.

Kartan vaihtaminen: klikkaa mustalla rastilla varustettuja vihreitä pisteitä, niin voit zoomata sisään; viivalla varustettua vihreää pistettä, niin voit zoomata ulos tai vihreitä nuolia, niin pääset viereisille kartoille.


METAR-TAF: